createdAt,value
2023-02-25T00:02:02.644Z,99442.25
2023-02-25T00:04:33.526Z,99449.22
2023-02-25T00:07:00.934Z,99440.25
2023-02-25T00:09:28.273Z,99446.41
2023-02-25T00:11:54.846Z,99438.88
2023-02-25T00:14:21.874Z,99447.84
2023-02-25T00:16:51.574Z,99446.63
2023-02-25T00:19:41.619Z,99455.97
2023-02-25T00:22:08.058Z,99451.75
2023-02-25T00:24:36.925Z,99465.41
2023-02-25T00:27:06.864Z,99453.09
2023-02-25T00:29:35.618Z,99459.50
2023-02-25T00:32:02.231Z,99459.03
2023-02-25T00:34:28.871Z,99456.31
2023-02-25T00:36:55.424Z,99461.41
2023-02-25T00:39:24.064Z,99457.75
2023-02-25T00:41:50.717Z,99458.16
2023-02-25T00:44:22.430Z,99463.91
2023-02-25T00:46:49.017Z,99459.88
2023-02-25T00:49:30.582Z,99469.84
2023-02-25T00:52:00.087Z,99467.31
2023-02-25T00:54:26.664Z,99470.91
2023-02-25T00:56:53.392Z,99477.75
2023-02-25T00:59:19.856Z,99474.56
2023-02-25T01:01:49.789Z,99482.97
2023-02-25T01:04:18.453Z,99483.34
2023-02-25T01:06:45.043Z,99473.03
2023-02-25T01:09:20.166Z,99484.66
2023-02-25T01:11:49.798Z,99492.91
2023-02-25T01:14:22.834Z,99495.09
2023-02-25T01:16:51.295Z,99481.56
2023-02-25T01:19:25.208Z,99491.69
2023-02-25T01:22:01.463Z,99501.19
2023-02-25T01:24:32.435Z,99496.09
2023-02-25T01:27:01.842Z,99488.84
2023-02-25T01:29:40.332Z,99492.38
2023-02-25T01:32:10.351Z,99495.94
2023-02-25T01:34:37.401Z,99492.69
2023-02-25T01:37:07.542Z,99512.72
2023-02-25T01:39:41.407Z,99512.56
2023-02-25T01:42:14.045Z,99503.44
2023-02-25T01:45:11.537Z,99496.53
2023-02-25T01:47:40.221Z,99492.69
2023-02-25T01:50:07.725Z,99495.72
2023-02-25T01:52:34.553Z,99494.06
2023-02-25T01:55:04.039Z,99481.56
2023-02-25T01:57:30.515Z,99484.00
2023-02-25T01:59:57.330Z,99469.69
2023-02-25T02:02:26.102Z,99478.31
2023-02-25T02:04:57.533Z,99478.34
2023-02-25T02:07:24.821Z,99470.31
2023-02-25T02:09:57.911Z,99470.50
2023-02-25T02:12:27.317Z,99469.69
2023-02-25T02:14:56.749Z,99465.16
2023-02-25T02:17:35.146Z,99474.75
2023-02-25T02:20:13.516Z,99468.53
2023-02-25T02:23:16.485Z,99467.00
2023-02-25T02:25:51.687Z,99469.06
2023-02-25T02:28:39.951Z,99470.72
2023-02-25T02:31:21.794Z,99461.63
2023-02-25T02:34:26.044Z,99466.50
2023-02-25T02:37:09.964Z,99467.16
2023-02-25T02:39:59.561Z,99464.13
2023-02-25T02:42:34.783Z,99465.47
2023-02-25T02:45:24.660Z,99473.41
2023-02-25T02:47:58.071Z,99481.00
2023-02-25T02:50:29.556Z,99486.41
2023-02-25T02:53:01.514Z,99490.44
2023-02-25T02:55:34.700Z,99491.47
2023-02-25T02:58:16.391Z,99496.88
2023-02-25T03:00:47.773Z,99489.09
2023-02-25T03:03:36.029Z,99490.97
2023-02-25T03:06:20.087Z,99500.41
2023-02-25T03:09:11.609Z,99509.50
2023-02-25T03:11:40.898Z,99506.66
2023-02-25T03:14:22.175Z,99502.25
2023-02-25T03:16:56.815Z,99507.50
2023-02-25T03:19:33.832Z,99505.78
2023-02-25T03:22:13.518Z,99513.88
2023-02-25T03:24:48.698Z,99514.91
2023-02-25T03:27:27.157Z,99511.53
2023-02-25T03:30:01.176Z,99507.81
2023-02-25T03:32:30.735Z,99508.50
2023-02-25T03:35:00.049Z,99516.25
2023-02-25T03:37:31.570Z,99514.91
2023-02-25T03:40:08.514Z,99515.22
2023-02-25T03:42:35.493Z,99520.13
2023-02-25T03:45:08.303Z,99522.66
2023-02-25T03:47:39.712Z,99527.88
2023-02-25T03:50:10.580Z,99522.13
2023-02-25T03:52:39.721Z,99532.78
2023-02-25T03:55:09.701Z,99536.63
2023-02-25T03:57:41.870Z,99535.78
2023-02-25T04:00:24.764Z,99535.63
2023-02-25T04:02:51.682Z,99537.31
2023-02-25T04:05:20.082Z,99546.59
2023-02-25T04:07:47.245Z,99546.25
2023-02-25T04:10:15.574Z,99539.50
2023-02-25T04:12:42.471Z,99542.72
2023-02-25T04:15:10.242Z,99548.44
2023-02-25T04:17:37.149Z,99546.94
2023-02-25T04:20:05.338Z,99550.13
2023-02-25T04:22:33.033Z,99553.34
2023-02-25T04:24:59.409Z,99542.91
2023-02-25T04:27:27.156Z,99553.69
2023-02-25T04:29:53.750Z,99549.28
2023-02-25T04:32:20.293Z,99560.09
2023-02-25T04:34:46.853Z,99562.13
2023-02-25T04:37:13.232Z,99555.38
2023-02-25T04:39:39.632Z,99554.53
2023-02-25T04:42:06.097Z,99557.22
2023-02-25T04:44:32.996Z,99550.28
2023-02-25T04:46:59.394Z,99558.56
2023-02-25T04:49:25.968Z,99560.41
2023-02-25T04:51:54.830Z,99557.88
2023-02-25T04:54:24.498Z,99564.63
2023-02-25T04:56:50.936Z,99556.88
2023-02-25T04:59:19.822Z,99563.13
2023-02-25T05:01:49.055Z,99565.97
2023-02-25T05:04:15.622Z,99554.66
2023-02-25T05:06:44.799Z,99548.59
2023-02-25T05:09:11.179Z,99570.34
2023-02-25T05:11:37.580Z,99568.81
2023-02-25T05:14:04.274Z,99564.63
2023-02-25T05:16:31.010Z,99560.06
2023-02-25T05:18:59.908Z,99566.78
2023-02-25T05:21:27.506Z,99561.75
2023-02-25T05:23:59.348Z,99553.00
2023-02-25T05:26:28.314Z,99553.00
2023-02-25T05:28:59.671Z,99567.47
2023-02-25T05:31:26.479Z,99559.38
2023-02-25T05:33:53.524Z,99560.88
2023-02-25T05:36:20.868Z,99556.19
2023-02-25T05:38:47.740Z,99561.41
2023-02-25T05:41:17.588Z,99565.13
2023-02-25T05:43:46.392Z,99563.97
2023-02-25T05:46:13.960Z,99561.78
2023-02-25T05:48:47.372Z,99559.09
2023-02-25T05:51:19.176Z,99553.50
2023-02-25T05:53:49.342Z,99559.75
2023-02-25T05:56:22.507Z,99562.59
2023-02-25T05:58:49.420Z,99582.34
2023-02-25T06:01:19.279Z,99588.25
2023-02-25T06:03:47.438Z,99570.19
2023-02-25T06:06:16.680Z,99588.59
2023-02-25T06:08:47.088Z,99574.75
2023-02-25T06:11:19.081Z,99561.09
2023-02-25T06:13:48.398Z,99565.81
2023-02-25T06:16:17.799Z,99556.19
2023-02-25T06:18:51.593Z,99568.34
2023-02-25T06:21:22.976Z,99570.69
2023-02-25T06:23:50.550Z,99581.66
2023-02-25T06:26:18.043Z,99588.75
2023-02-25T06:28:44.767Z,99586.03
2023-02-25T06:31:19.904Z,99584.69
2023-02-25T06:33:46.887Z,99606.44
2023-02-25T06:36:13.797Z,99604.59
2023-02-25T06:38:44.331Z,99624.84
2023-02-25T06:41:16.614Z,99605.09
2023-02-25T06:43:43.680Z,99604.94
2023-02-25T06:46:13.529Z,99615.06
2023-02-25T06:48:40.990Z,99628.91
2023-02-25T06:51:09.495Z,99606.59
2023-02-25T06:53:41.263Z,99623.84
2023-02-25T06:56:12.840Z,99635.31
2023-02-25T06:58:39.499Z,99638.69
2023-02-25T07:01:10.851Z,99642.22
2023-02-25T07:03:37.850Z,99631.09
2023-02-25T07:06:04.707Z,99641.72
2023-02-25T07:08:31.935Z,99639.34
2023-02-25T07:11:23.009Z,99649.81
2023-02-25T07:13:50.372Z,99612.84
2023-02-25T07:16:17.607Z,99623.50
2023-02-25T07:18:44.649Z,99635.94
2023-02-25T07:21:15.972Z,99632.25
2023-02-25T07:23:42.948Z,99641.69
2023-02-25T07:26:11.704Z,99641.53
2023-02-25T07:28:38.975Z,99657.22
2023-02-25T07:31:18.700Z,99657.56
2023-02-25T07:33:46.017Z,99659.25
2023-02-25T07:36:13.074Z,99668.69
2023-02-25T07:38:40.122Z,99668.00
2023-02-25T07:41:14.450Z,99649.75
2023-02-25T07:43:41.683Z,99665.28
2023-02-25T07:46:09.054Z,99659.03
2023-02-25T07:48:36.222Z,99657.84
2023-02-25T07:51:17.229Z,99670.69
2023-02-25T07:53:44.981Z,99690.59
2023-02-25T07:56:15.626Z,99690.88
2023-02-25T07:58:42.503Z,99680.75
2023-02-25T08:01:18.235Z,99701.38
2023-02-25T08:03:48.506Z,99684.28
2023-02-25T08:06:15.378Z,99710.47
2023-02-25T08:08:41.768Z,99704.19
2023-02-25T08:11:12.984Z,99698.91
2023-02-25T08:13:39.818Z,99683.00
2023-02-25T08:16:12.409Z,99710.75
2023-02-25T08:18:42.821Z,99684.50
2023-02-25T08:21:10.963Z,99681.94
2023-02-25T08:23:38.087Z,99693.25
2023-02-25T08:26:09.541Z,99688.16
2023-02-25T08:28:37.325Z,99702.50
2023-02-25T08:31:06.742Z,99713.50
2023-02-25T08:33:33.377Z,99698.38
2023-02-25T08:36:11.287Z,99716.97
2023-02-25T08:38:38.666Z,99721.25
2023-02-25T08:41:06.767Z,99736.97
2023-02-25T08:43:33.758Z,99713.94
2023-02-25T08:46:01.402Z,99715.31
2023-02-25T08:48:28.004Z,99707.19
2023-02-25T08:50:55.992Z,99730.56
2023-02-25T08:53:23.151Z,99717.69
2023-02-25T08:55:51.196Z,99703.16
2023-02-25T08:58:17.699Z,99724.81
2023-02-25T09:00:50.039Z,99691.59
2023-02-25T09:03:16.849Z,99679.88
2023-02-25T09:05:43.820Z,99683.75
2023-02-25T09:08:10.220Z,99692.53
2023-02-25T09:10:49.895Z,99720.28
2023-02-25T09:13:17.294Z,99735.47
2023-02-25T09:15:43.776Z,99731.75
2023-02-25T09:18:15.067Z,99714.97
2023-02-25T09:20:41.672Z,99725.28
2023-02-25T09:23:11.184Z,99702.72
2023-02-25T09:25:38.592Z,99731.00
2023-02-25T09:28:08.528Z,99722.88
2023-02-25T09:30:35.094Z,99726.22
2023-02-25T09:33:01.990Z,99710.34
2023-02-25T09:35:30.968Z,99699.69
2023-02-25T09:37:58.596Z,99704.91
2023-02-25T09:40:26.220Z,99728.59
2023-02-25T09:43:10.308Z,99707.94
2023-02-25T09:45:37.151Z,99706.50
2023-02-25T09:48:15.663Z,99708.91
2023-02-25T09:50:51.841Z,99713.00
2023-02-25T09:53:34.702Z,99709.09
2023-02-25T09:56:02.486Z,99724.41
2023-02-25T09:58:48.525Z,99715.38
2023-02-25T10:01:26.929Z,99735.50
2023-02-25T10:04:11.735Z,99736.56
2023-02-25T10:06:49.705Z,99717.03
2023-02-25T10:09:31.694Z,99721.38
2023-02-25T10:12:04.395Z,99679.78
2023-02-25T10:14:46.027Z,99697.53
2023-02-25T10:17:15.069Z,99703.47
2023-02-25T10:20:10.449Z,99702.81
2023-02-25T10:22:43.095Z,99655.69
2023-02-25T10:25:15.959Z,99648.63
2023-02-25T10:27:55.228Z,99655.41
2023-02-25T10:30:28.086Z,99656.00
2023-02-25T10:32:56.502Z,99661.03
2023-02-25T10:35:31.988Z,99681.28
2023-02-25T10:37:58.591Z,99693.84
2023-02-25T10:40:29.160Z,99712.81
2023-02-25T10:43:01.030Z,99706.34
2023-02-25T10:45:32.274Z,99716.53
2023-02-25T10:48:22.674Z,99716.78
2023-02-25T10:51:06.025Z,99707.38
2023-02-25T10:53:34.425Z,99701.94
2023-02-25T10:56:02.383Z,99711.38
2023-02-25T10:58:38.581Z,99712.50
2023-02-25T11:01:19.871Z,99718.38
2023-02-25T11:04:12.413Z,99709.41
2023-02-25T11:06:43.092Z,99704.56
2023-02-25T11:09:18.856Z,99689.44
2023-02-25T11:12:10.925Z,99695.72
2023-02-25T11:14:39.055Z,99709.84
2023-02-25T11:17:12.422Z,99704.63
2023-02-25T11:19:42.778Z,99713.69
2023-02-25T11:22:17.550Z,99701.72
2023-02-25T11:24:47.287Z,99790.50
2023-02-25T11:27:40.252Z,99805.59
2023-02-25T11:30:18.427Z,99757.88
2023-02-25T11:32:53.619Z,99717.44
2023-02-25T11:35:35.749Z,99662.66
2023-02-25T11:38:31.948Z,99615.28
2023-02-25T11:40:59.210Z,99608.22
2023-02-25T11:43:37.443Z,99621.63
2023-02-25T11:46:13.128Z,99623.91
2023-02-25T11:49:13.461Z,99630.50
2023-02-25T11:51:48.336Z,99622.09
2023-02-25T11:54:35.976Z,99614.44
2023-02-25T11:57:34.119Z,99625.38
2023-02-25T12:00:04.380Z,99649.53
2023-02-25T12:02:39.804Z,99667.09
2023-02-25T12:05:06.579Z,99698.03
2023-02-25T12:07:55.717Z,99682.72
2023-02-25T12:10:47.188Z,99702.69
2023-02-25T12:13:35.169Z,99710.50
2023-02-25T12:16:10.625Z,99709.03
2023-02-25T12:19:09.642Z,99684.09
2023-02-25T12:21:54.829Z,99706.25
2023-02-25T12:24:58.679Z,99713.66
2023-02-25T12:28:22.826Z,99729.50
2023-02-25T12:31:00.620Z,99689.56
2023-02-25T12:33:43.053Z,99703.09
2023-02-25T12:36:46.999Z,99707.84
2023-02-25T12:39:19.092Z,99693.53
2023-02-25T12:42:07.318Z,99692.59
2023-02-25T12:45:09.064Z,99679.06
2023-02-25T12:48:05.744Z,99677.03
2023-02-25T12:50:54.076Z,99718.38
2023-02-25T12:53:32.821Z,99715.78
2023-02-25T12:56:39.954Z,99698.31
2023-02-25T12:59:40.744Z,99744.59
2023-02-25T13:02:29.075Z,99765.84
2023-02-25T13:05:16.501Z,99759.50
2023-02-25T13:07:56.810Z,99736.69
2023-02-25T13:10:56.646Z,99768.09
2023-02-25T13:13:41.319Z,99770.06
2023-02-25T13:16:13.664Z,99752.75
2023-02-25T13:19:14.135Z,99746.34
2023-02-25T13:22:10.511Z,99742.53
2023-02-25T13:24:49.816Z,99739.91
2023-02-25T13:27:53.883Z,99726.34
2023-02-25T13:30:31.381Z,99728.50
2023-02-25T13:33:31.812Z,99739.91
2023-02-25T13:36:13.589Z,99721.66
2023-02-25T13:39:08.893Z,99733.34
2023-02-25T13:41:44.576Z,99712.00
2023-02-25T13:44:48.730Z,99720.41
2023-02-25T13:47:53.778Z,99725.22
2023-02-25T13:50:37.773Z,99734.00
2023-02-25T13:53:34.861Z,99755.28
2023-02-25T13:56:32.812Z,99738.72
2023-02-25T13:59:09.101Z,99751.59
2023-02-25T14:01:57.328Z,99719.50
2023-02-25T14:04:33.386Z,99601.09
2023-02-25T14:07:28.084Z,99545.34
2023-02-25T14:10:04.035Z,99555.94
2023-02-25T14:12:48.635Z,99569.97
2023-02-25T14:15:39.748Z,99581.44
2023-02-25T14:18:24.962Z,99597.38
2023-02-25T14:21:25.632Z,99586.41
2023-02-25T14:23:58.144Z,99587.97
2023-02-25T14:26:30.564Z,99590.59
2023-02-25T14:29:14.828Z,99591.69
2023-02-25T14:32:22.895Z,99621.53
2023-02-25T14:34:59.180Z,99601.56
2023-02-25T14:37:40.700Z,99658.06
2023-02-25T14:40:30.244Z,99661.34
2023-02-25T14:43:28.652Z,99684.94
2023-02-25T14:46:03.757Z,99710.53
2023-02-25T14:48:47.283Z,99699.53
2023-02-25T14:51:25.912Z,99698.22
2023-02-25T14:54:17.812Z,99682.97
2023-02-25T14:56:57.204Z,99695.34
2023-02-25T14:59:42.176Z,99703.00
2023-02-25T15:02:20.771Z,99685.91
2023-02-25T15:05:05.362Z,99675.25
2023-02-25T15:07:46.943Z,99665.28
2023-02-25T15:10:35.160Z,99690.63
2023-02-25T15:13:24.462Z,99684.88
2023-02-25T15:16:00.991Z,99671.53
2023-02-25T15:18:33.560Z,99696.50
2023-02-25T15:21:38.889Z,99724.91
2023-02-25T15:24:37.123Z,99708.88
2023-02-25T15:27:32.434Z,99701.44
2023-02-25T15:30:00.607Z,99703.97
2023-02-25T15:32:30.470Z,99686.41
2023-02-25T15:34:59.925Z,99716.00
2023-02-25T15:37:32.484Z,99712.81
2023-02-25T15:40:14.248Z,99701.66
2023-02-25T15:42:44.331Z,99688.19
2023-02-25T15:45:29.199Z,99673.34
2023-02-25T15:48:08.071Z,99674.50
2023-02-25T15:50:43.445Z,99664.25
2023-02-25T15:53:24.683Z,99678.97
2023-02-25T15:56:12.495Z,99690.03
2023-02-25T15:58:52.732Z,99692.75
2023-02-25T16:01:28.530Z,99709.19
2023-02-25T16:03:57.814Z,99721.41
2023-02-25T16:06:42.859Z,99717.88
2023-02-25T16:09:19.143Z,99738.16
2023-02-25T16:11:49.569Z,99745.25
2023-02-25T16:14:35.925Z,99780.91
2023-02-25T16:17:29.275Z,99712.25
2023-02-25T16:20:19.020Z,99743.66
2023-02-25T16:22:48.162Z,99751.91
2023-02-25T16:25:19.697Z,99762.84
2023-02-25T16:27:55.459Z,99763.91
2023-02-25T16:30:30.968Z,99763.91
2023-02-25T16:33:17.987Z,99765.06
2023-02-25T16:36:07.539Z,99773.44
2023-02-25T16:38:38.287Z,99772.78
2023-02-25T16:41:05.560Z,99775.47
2023-02-25T16:43:37.255Z,99777.28
2023-02-25T16:46:07.178Z,99784.00
2023-02-25T16:48:37.963Z,99791.88
2023-02-25T16:51:10.901Z,99787.88
2023-02-25T16:53:44.195Z,99789.66
2023-02-25T16:56:27.951Z,99790.38
2023-02-25T16:59:09.943Z,99790.50
2023-02-25T17:01:38.629Z,99797.22
2023-02-25T17:04:25.260Z,99798.06
2023-02-25T17:07:08.600Z,99799.38
2023-02-25T17:09:37.245Z,99807.16
2023-02-25T17:12:04.677Z,99811.03
2023-02-25T17:14:31.750Z,99805.97
2023-02-25T17:16:59.217Z,99818.25
2023-02-25T17:19:26.710Z,99822.13
2023-02-25T17:21:58.895Z,99822.41
2023-02-25T17:24:35.037Z,99828.13
2023-02-25T17:27:12.267Z,99830.22
2023-02-25T17:29:41.408Z,99830.34
2023-02-25T17:32:37.469Z,99827.88
2023-02-25T17:35:07.042Z,99841.28
2023-02-25T17:37:33.826Z,99837.84
2023-02-25T17:40:08.159Z,99842.50
2023-02-25T17:42:41.089Z,99845.44
2023-02-25T17:45:41.707Z,99847.34
2023-02-25T17:48:30.010Z,99849.56
2023-02-25T17:51:12.117Z,99852.56
2023-02-25T17:53:56.956Z,99856.44
2023-02-25T17:56:27.540Z,99862.84
2023-02-25T17:59:13.602Z,99872.59
2023-02-25T18:01:56.237Z,99868.47
2023-02-25T18:04:39.063Z,99875.78
2023-02-25T18:07:31.127Z,99877.94
2023-02-25T18:09:57.518Z,99876.19
2023-02-25T18:12:31.786Z,99880.00
2023-02-25T18:15:01.019Z,99882.47
2023-02-25T18:17:33.505Z,99892.81
2023-02-25T18:20:08.670Z,99898.75
2023-02-25T18:22:41.154Z,99906.88
2023-02-25T18:25:27.639Z,99900.09
2023-02-25T18:27:56.909Z,99895.88
2023-02-25T18:30:30.442Z,99903.78
2023-02-25T18:33:02.362Z,99908.47
2023-02-25T18:35:31.232Z,99906.34
2023-02-25T18:38:00.901Z,99905.78
2023-02-25T18:40:35.728Z,99916.84
2023-02-25T18:43:03.767Z,99917.22
2023-02-25T18:45:31.782Z,99920.63
2023-02-25T18:48:00.293Z,99931.19
2023-02-25T18:50:30.634Z,99938.00
2023-02-25T18:53:01.612Z,99939.47
2023-02-25T18:55:34.396Z,99938.19
2023-02-25T19:01:58.842Z,99954.72
2023-02-25T19:04:39.082Z,99961.69
2023-02-25T19:07:34.181Z,99959.28
2023-02-25T19:10:23.047Z,99968.75
2023-02-25T19:13:19.876Z,99974.84
2023-02-25T19:15:55.832Z,99975.19
2023-02-25T19:21:21.128Z,99981.16
2023-02-25T19:23:52.392Z,99992.53
2023-02-25T19:26:45.366Z,100000.84
2023-02-25T19:32:03.091Z,100018.44
2023-02-25T19:34:43.931Z,100030.31
2023-02-25T19:40:43.281Z,100060.06
2023-02-25T19:43:40.158Z,100076.72
2023-02-25T19:46:14.346Z,100107.28
2023-02-25T19:49:00.638Z,100120.72
2023-02-25T19:51:44.736Z,100150.88
2023-02-25T19:54:25.729Z,100153.53
2023-02-25T19:56:59.018Z,100162.91
2023-02-25T19:59:29.356Z,100182.28
2023-02-25T20:02:30.410Z,100189.78
2023-02-25T20:05:11.347Z,100204.22
2023-02-25T20:08:01.790Z,100202.50
2023-02-25T20:13:52.586Z,100224.16
2023-02-25T20:16:48.689Z,100205.88
2023-02-25T20:19:51.296Z,100214.03
2023-02-25T20:25:37.961Z,100228.03
2023-02-25T20:28:21.669Z,100203.13
2023-02-25T20:31:04.685Z,100224.31
2023-02-25T20:34:21.466Z,100238.63
2023-02-25T20:37:10.797Z,100224.97
2023-02-25T20:39:57.912Z,100254.16
2023-02-25T20:46:14.695Z,100276.50
2023-02-25T20:48:45.180Z,100277.66
2023-02-25T20:51:24.437Z,100275.22
2023-02-25T20:57:06.041Z,100257.91
2023-02-25T20:59:32.743Z,100245.59
2023-02-25T21:02:28.026Z,100252.91
2023-02-25T21:05:34.015Z,100250.59
2023-02-25T21:08:23.936Z,100224.97
2023-02-25T21:10:57.705Z,100224.25
2023-02-25T21:14:02.168Z,100245.47
2023-02-25T21:16:41.363Z,100216.28
2023-02-25T21:19:34.402Z,100230.41
2023-02-25T21:22:00.944Z,100222.63
2023-02-25T21:24:43.363Z,100203.63
2023-02-25T21:27:46.873Z,100209.97
2023-02-25T21:36:21.722Z,100201.50
2023-02-25T21:39:23.889Z,100195.63
2023-02-25T21:41:57.678Z,100202.38
2023-02-25T21:44:33.004Z,100204.91
2023-02-25T21:47:12.538Z,100190.09
2023-02-25T21:49:53.847Z,100197.63
2023-02-25T21:52:23.645Z,100208.41
2023-02-25T21:54:54.124Z,100201.69
2023-02-25T21:57:30.283Z,100189.63
2023-02-25T22:02:58.177Z,100185.19
2023-02-25T22:09:00.680Z,100187.13
2023-02-25T22:14:43.269Z,100187.44
2023-02-25T22:17:26.242Z,100191.81
2023-02-25T22:20:12.707Z,100192.75
2023-02-25T22:23:17.347Z,100192.75
2023-02-25T22:26:11.964Z,100192.75
2023-02-25T22:28:46.447Z,100188.28
2023-02-25T22:31:33.133Z,100179.00
2023-02-25T22:34:09.269Z,100172.19
2023-02-25T22:37:02.502Z,100187.69
2023-02-25T22:40:00.908Z,100186.47
2023-02-25T22:42:41.708Z,100188.44
2023-02-25T22:45:29.656Z,100186.75
2023-02-25T22:48:08.401Z,100189.22
2023-02-25T22:51:21.334Z,100182.88
2023-02-25T22:54:14.689Z,100191.66
2023-02-25T22:59:52.668Z,100198.81
2023-02-25T23:05:17.827Z,100198.09
2023-02-25T23:08:00.050Z,100201.50
2023-02-25T23:11:12.033Z,100207.00
2023-02-25T23:13:47.605Z,100199.94
2023-02-25T23:16:32.401Z,100204.09
2023-02-25T23:19:07.656Z,100192.41
2023-02-25T23:22:00.615Z,100202.31
2023-02-25T23:25:05.590Z,100200.97
2023-02-25T23:27:32.484Z,100191.47
2023-02-25T23:32:59.894Z,100202.19
2023-02-25T23:35:41.112Z,100205.38
2023-02-25T23:38:33.609Z,100201.56
2023-02-25T23:41:08.705Z,100213.50
2023-02-25T23:43:37.812Z,100211.69
2023-02-25T23:46:05.692Z,100219.47
2023-02-25T23:48:32.633Z,100222.16
2023-02-25T23:51:10.598Z,100239.69
2023-02-25T23:53:36.981Z,100226.19
2023-02-25T23:56:08.826Z,100224.72
2023-02-25T23:58:35.693Z,100224.59
